Time;durP1;ratioP1;P1;durP2;ratioP2;P2;SDS_P1;SDS_P2;PMS_P1;PMS_P2;Temp;Humidity;BMP_temperature;BMP_pressure;BME280_temperature;BME280_humidity;BME280_pressure;Samples;Min_cycle;Max_cycle;Signal;HPM_P1;HPM_P2
2024/05/06 00:02:16;;;;;;;13.15;11.15;;;8.00;99.90;;;;;;5316604;26;20004;-80
2024/05/06 00:04:44;;;;;;;10.88;8.02;;;8.10;99.90;;;;;;5347047;26;19997;-80
2024/05/06 00:07:11;;;;;;;10.20;9.15;;;8.10;99.90;;;;;;5346792;26;20085;-80
2024/05/06 00:09:38;;;;;;;9.98;8.48;;;8.20;99.90;;;;;;5347682;26;20001;-79
2024/05/06 00:12:05;;;;;;;9.68;7.95;;;8.10;99.90;;;;;;5318488;26;20074;-79
2024/05/06 00:14:32;;;;;;;11.10;9.02;;;8.10;99.90;;;;;;5317544;26;20001;-80
2024/05/06 00:16:59;;;;;;;9.75;7.53;;;8.10;99.90;;;;;;5346358;26;20009;-80
2024/05/06 00:19:26;;;;;;;10.98;9.00;;;8.10;99.90;;;;;;5346377;26;20403;-79
2024/05/06 00:21:53;;;;;;;9.52;8.52;;;8.10;99.90;;;;;;5345669;26;20048;-80
2024/05/06 00:24:20;;;;;;;10.13;9.13;;;8.20;99.90;;;;;;5345971;26;20005;-79
2024/05/06 00:26:48;;;;;;;10.68;7.68;;;8.00;99.90;;;;;;5344451;26;20119;-80
2024/05/06 00:29:15;;;;;;;9.23;7.82;;;8.00;99.90;;;;;;5346405;26;20078;-79
2024/05/06 00:31:42;;;;;;;7.90;7.10;;;8.00;99.90;;;;;;5317226;26;20001;-79
2024/05/06 00:34:09;;;;;;;8.23;7.35;;;8.00;99.90;;;;;;5345861;26;20001;-80
2024/05/06 00:36:36;;;;;;;8.70;6.53;;;7.90;99.90;;;;;;5375182;26;20325;-80
2024/05/06 00:39:03;;;;;;;7.90;7.10;;;7.90;99.90;;;;;;5346283;26;20012;-80
2024/05/06 00:41:30;;;;;;;11.43;6.60;;;7.80;99.90;;;;;;5347767;26;20025;-80
2024/05/06 00:43:57;;;;;;;8.60;7.65;;;7.80;99.90;;;;;;5345572;26;19997;-80
2024/05/06 00:46:25;;;;;;;7.68;6.32;;;7.70;99.90;;;;;;5317473;26;20322;-79
2024/05/06 00:48:54;;;;;;;9.43;7.82;;;7.70;99.90;;;;;;5345440;26;19997;-79
2024/05/06 00:51:24;;;;;;;10.35;8.02;;;7.70;99.90;;;;;;5345960;26;19997;-80
2024/05/06 00:53:51;;;;;;;12.90;7.93;;;7.60;99.90;;;;;;5346946;26;20016;-79
2024/05/06 00:56:19;;;;;;;13.63;9.60;;;7.60;99.90;;;;;;5347256;26;20013;-80
2024/05/06 00:58:47;;;;;;;10.30;6.95;;;7.60;99.90;;;;;;5345513;26;20458;-80
2024/05/06 01:01:15;;;;;;;8.38;7.10;;;7.60;99.90;;;;;;5347209;26;20016;-80
2024/05/06 01:03:44;;;;;;;8.57;7.05;;;7.50;99.90;;;;;;5316895;26;20001;-79
2024/05/06 01:06:11;;;;;;;10.02;6.47;;;7.50;99.90;;;;;;5347125;26;20015;-79
2024/05/06 01:08:39;;;;;;;9.07;7.47;;;7.40;99.90;;;;;;5374473;26;20012;-80
2024/05/06 01:11:06;;;;;;;11.98;10.07;;;7.40;99.90;;;;;;5345180;26;20001;-80
2024/05/06 01:13:33;;;;;;;8.90;8.18;;;7.40;99.90;;;;;;5347071;26;20001;-79
2024/05/06 01:16:00;;;;;;;10.13;8.10;;;7.40;99.90;;;;;;5345383;26;20012;-79
2024/05/06 01:18:27;;;;;;;9.00;7.72;;;7.30;99.90;;;;;;5316742;26;20004;-79
2024/05/06 01:21:06;;;;;;;10.90;8.82;;;7.40;99.90;;;;;;5316774;26;20008;-79
2024/05/06 01:23:34;;;;;;;10.95;9.25;;;7.40;99.90;;;;;;5379289;26;20411;-79
2024/05/06 01:26:01;;;;;;;9.23;7.63;;;7.30;99.90;;;;;;5381232;26;20000;-79
2024/05/06 01:28:29;;;;;;;11.52;8.52;;;7.30;99.90;;;;;;5381883;26;20452;-80
2024/05/06 01:30:56;;;;;;;10.20;8.98;;;7.30;99.90;;;;;;5381743;26;20073;-80
2024/05/06 01:33:23;;;;;;;10.98;7.45;;;7.30;99.90;;;;;;5409473;26;20012;-79
2024/05/06 01:35:50;;;;;;;8.45;7.15;;;7.30;99.90;;;;;;5379504;26;20019;-79
2024/05/06 01:38:17;;;;;;;9.38;8.15;;;7.30;99.90;;;;;;5379621;26;20111;-79
2024/05/06 01:40:44;;;;;;;8.50;6.97;;;7.30;99.90;;;;;;5381736;26;20016;-79
2024/05/06 01:43:11;;;;;;;8.73;7.43;;;7.30;99.90;;;;;;5322380;26;20000;-80
2024/05/06 01:45:38;;;;;;;9.60;7.45;;;7.20;99.90;;;;;;5379895;26;20000;-79
2024/05/06 01:48:05;;;;;;;11.30;8.57;;;7.20;99.90;;;;;;5350479;26;20485;-79
2024/05/06 01:50:32;;;;;;;9.75;8.80;;;7.20;99.90;;;;;;5351195;26;20016;-79
2024/05/06 01:52:59;;;;;;;11.98;7.78;;;7.20;99.90;;;;;;5379625;26;20000;-79
2024/05/06 01:55:26;;;;;;;10.15;7.03;;;7.10;99.90;;;;;;5380147;26;20007;-79
2024/05/06 01:57:54;;;;;;;11.27;8.00;;;7.10;99.90;;;;;;5379684;26;20007;-79
2024/05/06 02:00:21;;;;;;;11.05;8.15;;;7.00;99.90;;;;;;5409483;26;19996;-79
2024/05/06 02:02:48;;;;;;;8.52;7.63;;;7.00;99.90;;;;;;5379790;26;20008;-79
2024/05/06 02:05:15;;;;;;;9.75;8.02;;;7.00;99.90;;;;;;5381685;26;20441;-79
2024/05/06 02:07:42;;;;;;;13.15;9.40;;;7.00;99.90;;;;;;5350921;26;19996;-80
2024/05/06 02:10:09;;;;;;;10.93;7.85;;;7.00;99.90;;;;;;5350767;26;20008;-79
2024/05/06 02:12:36;;;;;;;8.60;7.68;;;7.00;99.90;;;;;;5350537;26;20001;-79
2024/05/06 02:15:04;;;;;;;8.50;7.28;;;6.90;99.90;;;;;;5380950;26;20000;-80
2024/05/06 02:17:31;;;;;;;9.57;7.40;;;6.90;99.90;;;;;;5379649;26;20008;-79
2024/05/06 02:19:58;;;;;;;8.82;7.72;;;6.90;99.90;;;;;;5379028;26;20011;-79
2024/05/06 02:22:25;;;;;;;7.75;6.90;;;6.90;99.90;;;;;;5379554;26;20015;-79
2024/05/06 02:24:52;;;;;;;7.88;6.72;;;6.80;99.90;;;;;;5379266;26;20000;-79
2024/05/06 02:27:21;;;;;;;9.60;8.52;;;6.80;99.90;;;;;;5379360;26;20031;-79
2024/05/06 02:29:48;;;;;;;9.10;6.97;;;6.70;99.90;;;;;;5350294;26;20399;-79
2024/05/06 02:32:15;;;;;;;8.10;6.90;;;6.70;99.90;;;;;;5378931;26;20338;-79
2024/05/06 02:34:42;;;;;;;11.90;8.45;;;6.70;99.90;;;;;;5408910;26;20007;-79
2024/05/06 02:37:10;;;;;;;10.15;7.20;;;6.70;99.90;;;;;;5379040;26;19997;-79
2024/05/06 02:39:37;;;;;;;9.40;7.13;;;6.60;99.90;;;;;;5379459;26;20007;-79
2024/05/06 02:42:04;;;;;;;10.00;8.18;;;6.60;99.90;;;;;;5379025;26;20015;-79
2024/05/06 02:44:31;;;;;;;9.32;8.38;;;6.50;99.90;;;;;;5379472;26;20011;-79
2024/05/06 02:46:58;;;;;;;9.50;7.97;;;6.50;99.90;;;;;;5378838;26;19997;-79
2024/05/06 02:49:25;;;;;;;15.18;9.82;;;6.50;99.90;;;;;;5378861;26;20000;-79
2024/05/06 02:51:52;;;;;;;10.18;8.27;;;6.50;99.90;;;;;;5382067;26;20012;-79
2024/05/06 02:54:19;;;;;;;13.05;8.82;;;6.50;99.90;;;;;;5381980;26;20433;-78
2024/05/06 02:56:46;;;;;;;11.30;9.02;;;6.60;99.90;;;;;;5384059;26;20015;-79
2024/05/06 02:59:13;;;;;;;10.15;7.55;;;6.60;99.90;;;;;;5352713;26;20000;-79
2024/05/06 03:01:43;;;;;;;9.77;8.05;;;6.70;99.90;;;;;;5342234;26;20026;-79
2024/05/06 03:04:10;;;;;;;9.50;7.63;;;6.50;99.90;;;;;;5381818;26;20008;-80
2024/05/06 03:06:41;;;;;;;8.57;7.68;;;6.50;99.90;;;;;;5324264;26;20354;-80
2024/05/06 03:09:08;;;;;;;9.82;7.53;;;6.50;99.90;;;;;;5381552;26;20008;-79
2024/05/06 03:11:39;;;;;;;9.48;8.15;;;6.40;99.90;;;;;;5382445;26;20011;-79
2024/05/06 03:14:09;;;;;;;9.40;7.38;;;6.40;99.90;;;;;;5381301;26;20400;-79
2024/05/06 03:16:39;;;;;;;10.43;8.75;;;6.40;99.90;;;;;;5382005;26;20422;-79
2024/05/06 03:19:08;;;;;;;;;;;6.40;99.90;;;;;;5353041;26;20000;-79
2024/05/06 03:21:35;;;;;;;16.48;7.22;;;6.50;99.90;;;;;;5381833;26;19933;-80
2024/05/06 03:24:03;;;;;;;10.05;8.32;;;6.40;99.90;;;;;;5383771;26;20069;-79
2024/05/06 03:26:30;;;;;;;12.70;8.95;;;6.40;99.90;;;;;;5382240;26;19996;-79
2024/05/06 03:28:57;;;;;;;17.58;12.27;;;6.40;99.90;;;;;;5411080;26;20011;-79
2024/05/06 03:31:24;;;;;;;13.05;10.23;;;6.40;99.90;;;;;;5381504;26;20014;-79
2024/05/06 03:33:51;;;;;;;14.75;9.88;;;6.40;99.90;;;;;;5383677;26;20000;-79
2024/05/06 03:36:18;;;;;;;15.25;10.50;;;6.40;99.90;;;;;;5381376;26;20034;-80
2024/05/06 03:38:45;;;;;;;12.38;9.30;;;6.40;99.90;;;;;;5352542;26;20000;-79
2024/05/06 03:41:12;;;;;;;11.13;9.13;;;6.40;99.90;;;;;;5381432;26;20000;-79
2024/05/06 03:43:39;;;;;;;12.80;9.77;;;6.60;99.90;;;;;;5383411;26;20000;-79
2024/05/06 03:46:09;;;;;;;13.75;9.07;;;6.40;99.90;;;;;;5381733;26;20469;-79
2024/05/06 03:48:37;;;;;;;12.13;10.25;;;6.40;99.90;;;;;;5383449;26;20024;-79
2024/05/06 03:51:04;;;;;;;10.75;8.40;;;6.40;99.90;;;;;;5353384;26;20322;-79
2024/05/06 03:53:32;;;;;;;14.63;9.45;;;6.40;99.90;;;;;;5352989;26;20032;-79
2024/05/06 03:55:59;;;;;;;12.27;9.20;;;6.40;99.90;;;;;;5381875;26;19996;-79
2024/05/06 03:58:26;;;;;;;10.63;9.00;;;6.40;99.90;;;;;;5352408;26;20056;-79
2024/05/06 04:00:53;;;;;;;10.80;9.10;;;6.30;99.90;;;;;;5381587;26;20008;-79
2024/05/06 04:03:20;;;;;;;11.40;8.93;;;6.40;99.90;;;;;;5381191;26;19996;-79
2024/05/06 04:05:47;;;;;;;13.10;9.85;;;6.30;99.90;;;;;;5352568;26;20008;-80
2024/05/06 04:08:14;;;;;;;11.50;9.32;;;6.30;99.90;;;;;;5351982;26;20004;-79
2024/05/06 04:10:41;;;;;;;12.77;9.23;;;6.30;99.90;;;;;;5383146;26;20000;-80
2024/05/06 04:13:08;;;;;;;12.70;10.38;;;6.40;99.90;;;;;;5380829;26;20015;-79
2024/05/06 04:15:35;;;;;;;13.43;10.77;;;6.40;99.90;;;;;;5352100;26;20012;-79
2024/05/06 04:18:02;;;;;;;11.05;9.40;;;6.40;99.90;;;;;;5381360;26;20442;-79
2024/05/06 04:20:29;;;;;;;14.63;10.75;;;6.50;99.90;;;;;;5380904;26;20000;-79
2024/05/06 04:22:57;;;;;;;13.13;9.98;;;6.50;99.90;;;;;;5381173;26;20001;-80
2024/05/06 04:28:11;;;;;;;11.85;10.52;;;6.60;99.90;;;;;;5345156;26;20016;-79
2024/05/06 04:30:38;;;;;;;12.15;9.60;;;6.70;99.90;;;;;;5382854;26;20042;-79
2024/05/06 04:33:05;;;;;;;10.60;8.52;;;6.80;99.90;;;;;;5382939;26;20490;-79
2024/05/06 04:35:32;;;;;;;10.07;8.55;;;6.80;99.90;;;;;;5381048;26;20042;-79
2024/05/06 04:37:59;;;;;;;13.68;9.40;;;6.80;99.90;;;;;;5380739;26;20330;-79
2024/05/06 04:40:26;;;;;;;10.73;8.98;;;6.90;99.90;;;;;;5380656;26;20012;-79
2024/05/06 04:42:53;;;;;;;15.13;10.57;;;6.90;99.90;;;;;;5352376;26;20061;-79
2024/05/06 04:45:20;;;;;;;14.63;11.25;;;7.10;99.90;;;;;;5380518;26;20007;-79
2024/05/06 04:47:47;;;;;;;13.98;10.75;;;7.00;99.90;;;;;;5351768;26;20074;-79
2024/05/06 04:50:14;;;;;;;15.57;11.55;;;7.10;99.90;;;;;;5382028;26;20000;-79
2024/05/06 04:52:41;;;;;;;15.65;12.32;;;7.20;99.90;;;;;;5380867;26;20000;-80
2024/05/06 04:55:08;;;;;;;14.40;11.88;;;7.30;99.90;;;;;;5351462;26;20015;-79
2024/05/06 04:57:35;;;;;;;16.17;11.40;;;7.40;99.90;;;;;;5351308;26;20011;-79
2024/05/06 05:00:02;;;;;;;15.65;13.07;;;7.60;99.90;;;;;;5380717;26;20000;-79
2024/05/06 05:02:29;;;;;;;13.68;10.50;;;7.60;99.90;;;;;;5350813;26;20009;-79
2024/05/06 05:04:56;;;;;;;16.75;12.80;;;7.70;99.90;;;;;;5344734;26;20381;-79
2024/05/06 05:07:24;;;;;;;17.27;11.55;;;7.80;99.90;;;;;;5346619;26;20013;-79
2024/05/06 05:09:51;;;;;;;14.25;10.63;;;7.90;99.90;;;;;;5347372;26;20025;-79
2024/05/06 05:12:18;;;;;;;12.98;9.95;;;8.00;99.90;;;;;;5346612;26;19997;-79
2024/05/06 05:14:45;;;;;;;11.82;10.00;;;8.10;99.90;;;;;;5344963;26;20068;-80
2024/05/06 05:17:12;;;;;;;11.82;9.90;;;8.20;99.90;;;;;;5347163;26;20015;-79
2024/05/06 05:19:39;;;;;;;12.70;9.07;;;8.40;99.90;;;;;;5345316;26;20446;-79
2024/05/06 05:22:08;;;;;;;10.60;9.43;;;8.60;99.90;;;;;;5347171;26;20008;-79
2024/05/06 05:24:35;;;;;;;12.55;9.63;;;8.80;99.90;;;;;;5346578;26;20021;-79
2024/05/06 05:27:06;;;;;;;9.05;7.93;;;9.30;99.90;;;;;;5374052;26;20012;-80
2024/05/06 05:29:33;;;;;;;9.77;8.88;;;10.00;99.90;;;;;;5373691;26;20016;-79
2024/05/06 05:32:00;;;;;;;10.25;8.18;;;10.80;99.90;;;;;;5344817;26;20001;-80
2024/05/06 05:34:27;;;;;;;9.43;8.52;;;11.50;99.90;;;;;;5316031;26;20001;-80
2024/05/06 05:36:55;;;;;;;7.28;6.22;;;12.10;99.90;;;;;;5346445;26;20012;-80
2024/05/06 05:39:22;;;;;;;7.32;6.63;;;12.60;99.90;;;;;;5315936;26;20519;-80
2024/05/06 05:41:49;;;;;;;6.53;5.82;;;12.80;99.90;;;;;;5346519;26;20000;-80
2024/05/06 05:44:16;;;;;;;7.00;6.40;;;13.10;99.90;;;;;;5316452;26;20447;-80
2024/05/06 05:46:45;;;;;;;7.32;6.47;;;13.50;99.90;;;;;;5344405;26;20104;-80
2024/05/06 05:49:12;;;;;;;6.75;6.15;;;13.90;99.90;;;;;;5316298;26;20519;-81
2024/05/06 05:51:39;;;;;;;7.38;6.03;;;14.30;99.90;;;;;;5344708;26;20029;-81
2024/05/06 05:54:06;;;;;;;7.35;6.60;;;14.60;99.90;;;;;;5346777;26;20347;-80
2024/05/06 05:56:33;;;;;;;6.88;6.25;;;15.00;99.90;;;;;;5344461;26;20001;-82
2024/05/06 05:59:01;;;;;;;6.65;6.05;;;15.30;99.90;;;;;;5316450;26;20005;-82
2024/05/06 06:01:29;;;;;;;7.10;6.05;;;15.70;99.90;;;;;;5315935;26;20504;-82
2024/05/06 06:03:56;;;;;;;6.00;5.50;;;16.10;99.90;;;;;;5346545;26;20003;-82
2024/05/06 06:06:23;;;;;;;5.82;5.40;;;16.50;99.90;;;;;;5345851;26;20671;-82
2024/05/06 06:08:50;;;;;;;5.50;5.10;;;16.70;99.90;;;;;;5315904;26;20078;-83
2024/05/06 06:11:17;;;;;;;5.63;5.20;;;16.70;99.90;;;;;;5318668;26;20098;-82
2024/05/06 06:13:44;;;;;;;7.03;6.43;;;17.20;99.90;;;;;;5316012;26;20361;-82
2024/05/06 06:16:11;;;;;;;5.95;5.20;;;17.60;99.90;;;;;;5343432;26;20012;-82
2024/05/06 06:18:39;;;;;;;5.93;5.43;;;18.00;99.90;;;;;;5344114;26;20012;-82
2024/05/06 06:21:06;;;;;;;5.40;4.90;;;18.50;99.90;;;;;;5287750;26;20330;-82
2024/05/06 06:23:33;;;;;;;5.90;5.43;;;18.80;99.20;;;;;;5344235;26;20000;-82
2024/05/06 06:26:00;;;;;;;6.25;5.22;;;19.00;97.20;;;;;;5315602;26;20019;-82
2024/05/06 06:28:27;;;;;;;5.00;4.50;;;19.20;95.40;;;;;;5373044;26;19997;-82
2024/05/06 06:30:54;;;;;;;5.38;4.40;;;19.40;95.10;;;;;;5315818;26;20001;-82
2024/05/06 06:33:21;;;;;;;4.75;4.18;;;19.50;94.00;;;;;;5316031;26;20132;-82
2024/05/06 06:35:48;;;;;;;6.65;3.75;;;19.50;93.30;;;;;;5344151;26;20012;-82
2024/05/06 06:38:15;;;;;;;4.22;3.78;;;19.50;92.50;;;;;;5344326;26;20012;-82
2024/05/06 06:40:42;;;;;;;4.68;4.30;;;19.10;90.40;;;;;;5315646;26;20070;-82
2024/05/06 06:43:10;;;;;;;6.03;4.20;;;19.10;91.10;;;;;;5315452;26;19997;-82
2024/05/06 06:45:37;;;;;;;5.88;5.38;;;19.30;91.20;;;;;;5343751;26;20005;-83
2024/05/06 06:48:04;;;;;;;4.88;4.35;;;19.60;90.70;;;;;;5315582;26;20040;-82
2024/05/06 06:50:31;;;;;;;5.13;4.72;;;19.90;90.10;;;;;;5344011;26;20001;-83
2024/05/06 06:52:58;;;;;;;4.90;4.40;;;20.30;89.40;;;;;;5372665;26;20001;-83
2024/05/06 06:55:25;;;;;;;5.63;5.07;;;20.60;88.50;;;;;;5343465;26;20001;-83
2024/05/06 06:57:52;;;;;;;5.13;4.63;;;21.00;86.80;;;;;;5343031;26;20001;-82
2024/05/06 07:00:19;;;;;;;6.30;5.43;;;21.20;86.10;;;;;;5343728;26;20001;-82
2024/05/06 07:02:47;;;;;;;4.97;4.55;;;21.30;86.10;;;;;;5343551;26;20012;-82
2024/05/06 07:05:14;;;;;;;6.20;5.22;;;21.50;86.10;;;;;;5286711;26;20012;-82
2024/05/06 07:07:41;;;;;;;6.47;4.93;;;21.70;83.50;;;;;;5343570;26;20075;-83
2024/05/06 07:10:08;;;;;;;4.95;4.50;;;21.70;83.20;;;;;;5343552;26;19997;-83
2024/05/06 07:12:35;;;;;;;4.13;3.83;;;21.90;83.10;;;;;;5314907;26;20323;-83
2024/05/06 07:15:02;;;;;;;5.15;4.75;;;22.30;81.70;;;;;;5286737;26;20012;-83
2024/05/06 07:17:29;;;;;;;5.55;4.90;;;22.30;80.30;;;;;;5343249;26;20009;-82
2024/05/06 07:19:57;;;;;;;5.28;4.90;;;22.60;81.30;;;;;;5286675;26;19993;-83
2024/05/06 07:22:24;;;;;;;5.07;4.68;;;22.90;81.00;;;;;;5343752;26;20070;-83
2024/05/06 07:24:51;;;;;;;5.70;5.20;;;23.00;78.20;;;;;;5314960;26;20029;-83
2024/05/06 07:27:18;;;;;;;4.10;3.70;;;23.10;77.60;;;;;;5343657;26;20001;-83
2024/05/06 07:29:45;;;;;;;5.13;4.72;;;23.00;77.10;;;;;;5343356;26;20001;-84
2024/05/06 07:32:12;;;;;;;4.90;3.92;;;23.10;77.00;;;;;;5315326;26;20033;-83
2024/05/06 07:34:39;;;;;;;4.60;4.20;;;23.10;75.30;;;;;;5343238;26;20012;-83
2024/05/06 07:37:06;;;;;;;5.82;5.03;;;22.90;75.30;;;;;;5317165;26;20000;-82
2024/05/06 07:39:33;;;;;;;4.93;4.63;;;22.80;75.30;;;;;;5346757;26;20001;-83
2024/05/06 07:42:00;;;;;;;4.90;4.45;;;22.80;75.80;;;;;;5346461;26;20001;-83
2024/05/06 07:44:27;;;;;;;4.97;4.47;;;23.10;75.60;;;;;;5348132;26;20075;-83
2024/05/06 07:46:54;;;;;;;5.68;4.45;;;23.60;75.50;;;;;;5318070;26;20001;-83
2024/05/06 07:49:22;;;;;;;6.05;5.13;;;23.90;74.80;;;;;;5346672;26;19997;-83
2024/05/06 07:51:49;;;;;;;5.22;4.68;;;24.10;74.70;;;;;;5318406;26;20134;-83
2024/05/06 07:54:16;;;;;;;3.97;3.67;;;24.40;73.90;;;;;;5375537;26;20104;-83
2024/05/06 07:56:43;;;;;;;4.15;3.75;;;24.50;71.40;;;;;;5346650;26;19997;-82
2024/05/06 07:59:11;;;;;;;5.13;4.72;;;24.40;71.50;;;;;;5318525;26;20318;-83
2024/05/06 08:01:41;;;;;;;5.38;4.88;;;24.10;71.80;;;;;;5346762;26;20066;-83
2024/05/06 08:04:08;;;;;;;4.65;4.25;;;24.00;71.50;;;;;;5348315;26;20001;-83
2024/05/06 08:06:35;;;;;;;2.15;1.95;;;24.10;71.80;;;;;;5346276;26;20315;-83
2024/05/06 08:09:03;;;;;;;3.88;3.13;;;24.30;70.80;;;;;;5346143;26;20003;-83
2024/05/06 08:11:31;;;;;;;4.03;3.72;;;24.00;70.60;;;;;;5346063;26;20001;-82
2024/05/06 08:13:59;;;;;;;5.43;5.03;;;23.70;71.20;;;;;;5374716;26;20012;-84
2024/05/06 08:16:26;;;;;;;5.55;5.05;;;23.50;71.50;;;;;;5375161;26;20001;-83
2024/05/06 08:18:53;;;;;;;5.20;4.80;;;23.60;71.30;;;;;;5346177;26;20012;-83
2024/05/06 08:21:20;;;;;;;6.55;5.30;;;23.70;71.40;;;;;;5346180;26;20075;-83
2024/05/06 08:23:47;;;;;;;5.25;4.75;;;24.10;71.60;;;;;;5345970;26;20315;-83
2024/05/06 08:26:14;;;;;;;4.95;4.55;;;24.70;71.10;;;;;;5348084;26;20008;-83
2024/05/06 08:28:41;;;;;;;5.53;4.72;;;25.20;70.10;;;;;;5346348;26;19997;-83
2024/05/06 08:31:08;;;;;;;4.68;4.28;;;25.70;69.60;;;;;;5345741;26;19997;-82
2024/05/06 08:33:36;;;;;;;5.35;4.95;;;26.00;69.10;;;;;;5345633;26;20048;-83
2024/05/06 08:36:03;;;;;;;5.50;5.00;;;26.20;68.40;;;;;;5318238;26;20009;-82
2024/05/06 08:38:30;;;;;;;4.30;3.97;;;26.20;66.80;;;;;;5330268;26;20016;-83
2024/05/06 08:40:57;;;;;;;5.57;5.15;;;26.30;66.60;;;;;;5317042;26;20008;-82
2024/05/06 08:43:25;;;;;;;4.57;3.95;;;26.30;67.20;;;;;;5317123;26;20032;-82
2024/05/06 08:45:53;;;;;;;4.90;4.00;;;26.40;67.00;;;;;;5289090;26;20430;-82
2024/05/06 08:48:22;;;;;;;4.00;3.60;;;26.70;66.40;;;;;;5344190;26;20001;-82
2024/05/06 08:50:53;;;;;;;4.30;3.85;;;27.00;65.80;;;;;;5345473;26;20001;-82
2024/05/06 08:53:20;;;;;;;4.85;4.55;;;27.20;64.50;;;;;;5345713;26;20015;-82
2024/05/06 08:55:52;;;;;;;5.15;4.85;;;27.20;64.90;;;;;;5317151;26;20073;-82
2024/05/06 08:58:20;;;;;;;5.10;4.65;;;27.20;64.80;;;;;;5345625;26;20009;-82
2024/05/06 09:00:51;;;;;;;4.15;3.78;;;27.10;64.90;;;;;;5317019;26;20025;-81
2024/05/06 09:03:24;;;;;;;4.75;4.32;;;27.10;64.20;;;;;;5345837;26;20012;-81
2024/05/06 09:05:52;;;;;;;4.93;4.53;;;27.20;63.90;;;;;;5317867;26;19997;-81
2024/05/06 09:08:19;;;;;;;4.88;4.47;;;27.20;63.30;;;;;;5345600;26;20033;-82
2024/05/06 09:10:46;;;;;;;4.15;3.85;;;27.40;63.70;;;;;;5345781;26;20008;-82
2024/05/06 09:13:22;;;;;;;4.03;3.63;;;27.50;63.30;;;;;;5316746;26;20078;-82
2024/05/06 09:15:59;;;;;;;4.35;3.50;;;27.60;62.60;;;;;;5347032;26;20000;-82
2024/05/06 09:18:26;;;;;;;4.55;4.13;;;27.60;62.20;;;;;;5345896;26;20008;-83
2024/05/06 09:21:05;;;;;;;4.97;4.60;;;27.70;62.50;;;;;;5345100;26;20032;-83
2024/05/06 09:23:32;;;;;;;;;;;27.80;61.90;;;;;;5345991;26;20016;-82
2024/05/06 09:26:03;;;;;;;4.30;4.00;;;27.90;62.40;;;;;;5344843;26;19995;-83
2024/05/06 09:28:32;;;;;;;4.45;4.05;;;28.00;62.20;;;;;;5345413;26;20078;-83
2024/05/06 09:30:59;;;;;;;3.83;3.53;;;28.20;61.90;;;;;;5345517;26;20005;-83
2024/05/06 09:33:29;;;;;;;2.90;2.38;;;28.20;61.40;;;;;;5317263;26;20009;-82
2024/05/06 09:36:01;;;;;;;2.80;2.60;;;28.30;60.80;;;;;;5318193;26;20389;-83
2024/05/06 09:38:30;;;;;;;4.05;3.65;;;28.30;60.10;;;;;;5316470;26;20492;-83
2024/05/06 09:41:11;;;;;;;4.38;3.65;;;28.50;60.10;;;;;;5344772;26;20074;-82
2024/05/06 09:43:41;;;;;;;5.05;4.28;;;28.60;60.00;;;;;;5345364;26;20005;-83
2024/05/06 09:46:09;;;;;;;5.50;4.97;;;28.70;60.00;;;;;;5344830;26;20070;-82
2024/05/06 09:48:37;;;;;;;4.93;4.18;;;28.70;60.30;;;;;;5345506;26;20008;-83
2024/05/06 09:51:07;;;;;;;4.90;4.03;;;28.70;60.40;;;;;;5344752;26;20001;-83
2024/05/06 09:53:37;;;;;;;5.05;3.70;;;28.70;60.60;;;;;;5316856;26;20004;-83
2024/05/06 09:56:06;;;;;;;;;;;28.80;60.50;;;;;;5317806;26;19997;-83
2024/05/06 09:58:34;;;;;;;2.78;2.47;;;28.80;59.30;;;;;;5344687;26;19926;-83
2024/05/06 10:01:02;;;;;;;3.78;3.45;;;28.70;59.90;;;;;;5344162;26;20016;-83
2024/05/06 10:03:30;;;;;;;4.53;4.10;;;28.70;59.20;;;;;;5316529;26;20000;-82
2024/05/06 10:06:01;;;;;;;5.03;3.22;;;28.50;59.00;;;;;;5316557;26;20001;-82
2024/05/06 10:08:28;;;;;;;3.38;3.08;;;28.40;59.40;;;;;;5378907;26;20000;-82
2024/05/06 10:10:57;;;;;;;3.30;3.00;;;28.50;59.40;;;;;;5380610;26;20000;-83
2024/05/06 10:13:24;;;;;;;3.50;3.20;;;28.80;59.20;;;;;;5378992;26;20062;-83
2024/05/06 10:15:51;;;;;;;3.58;3.28;;;28.80;58.70;;;;;;5345880;26;20005;-82
2024/05/06 10:18:23;;;;;;;3.88;3.40;;;28.70;58.10;;;;;;5345197;26;20439;-83
2024/05/06 10:21:05;;;;;;;3.85;3.40;;;28.50;58.40;;;;;;5344290;26;20143;-83
2024/05/06 10:23:33;;;;;;;4.32;3.42;;;28.30;58.60;;;;;;5344776;26;19996;-82
2024/05/06 10:26:09;;;;;;;3.90;3.55;;;28.10;59.00;;;;;;5287542;26;19997;-82
2024/05/06 10:28:43;;;;;;;4.65;4.22;;;28.00;59.00;;;;;;5318568;26;20427;-82
2024/05/06 10:31:14;;;;;;;4.88;4.45;;;28.10;59.00;;;;;;5345948;26;20019;-82
2024/05/06 10:33:42;;;;;;;4.43;4.03;;;28.20;59.10;;;;;;5344808;26;20500;-82
2024/05/06 10:36:10;;;;;;;4.13;3.72;;;28.40;58.80;;;;;;5344375;26;20005;-82
2024/05/06 10:38:37;;;;;;;4.90;4.40;;;28.40;58.90;;;;;;5316169;26;20007;-82
2024/05/06 10:41:08;;;;;;;4.20;3.80;;;28.30;58.70;;;;;;5343825;26;20078;-82
2024/05/06 10:43:36;;;;;;;4.60;4.07;;;28.00;58.90;;;;;;5344122;26;20013;-82
2024/05/06 10:46:03;;;;;;;3.40;3.20;;;28.10;59.40;;;;;;5315684;26;20016;-82
2024/05/06 10:48:30;;;;;;;3.40;3.10;;;28.30;58.50;;;;;;5315501;26;20001;-82
2024/05/06 10:50:58;;;;;;;3.47;3.17;;;28.40;58.60;;;;;;5315404;26;20375;-83
2024/05/06 10:53:25;;;;;;;3.63;3.30;;;28.80;58.50;;;;;;5343716;26;20507;-83
2024/05/06 10:55:53;;;;;;;5.63;4.38;;;29.00;57.80;;;;;;5315374;26;20000;-82
2024/05/06 10:58:21;;;;;;;3.70;3.40;;;29.10;57.40;;;;;;5314939;26;20009;-82
2024/05/06 11:00:49;;;;;;;3.45;3.15;;;28.90;57.00;;;;;;5315189;26;20330;-82
2024/05/06 11:03:18;;;;;;;4.63;3.90;;;28.90;57.30;;;;;;5343501;26;20029;-83
2024/05/06 11:05:46;;;;;;;4.38;3.83;;;29.00;56.60;;;;;;5287308;26;20005;-83
2024/05/06 11:08:15;;;;;;;3.55;3.25;;;29.00;56.60;;;;;;5286671;26;20044;-82
2024/05/06 11:10:49;;;;;;;4.40;4.00;;;28.90;56.50;;;;;;5315185;26;20434;-82
2024/05/06 11:13:16;;;;;;;4.15;3.80;;;28.80;56.10;;;;;;5318567;26;20001;-82
2024/05/06 11:15:44;;;;;;;4.53;4.03;;;28.70;56.50;;;;;;5289859;26;20052;-82
2024/05/06 11:18:11;;;;;;;5.97;5.47;;;28.70;56.80;;;;;;5318407;26;20009;-82
2024/05/06 11:20:39;;;;;;;5.25;4.80;;;29.00;57.00;;;;;;5346763;26;20499;-83
2024/05/06 11:23:07;;;;;;;5.80;4.32;;;29.20;57.10;;;;;;5346914;26;20013;-82
2024/05/06 11:25:41;;;;;;;6.13;5.63;;;29.20;57.20;;;;;;5348619;26;20017;-82
2024/05/06 11:28:13;;;;;;;5.93;5.47;;;28.70;57.10;;;;;;5347067;26;20083;-82
2024/05/06 11:30:44;;;;;;;5.88;5.38;;;28.10;58.10;;;;;;5346581;26;20000;-82
2024/05/06 11:33:13;;;;;;;5.28;4.88;;;27.80;58.50;;;;;;5317769;26;20094;-83
2024/05/06 11:35:41;;;;;;;6.10;5.07;;;27.70;57.90;;;;;;5290057;26;20001;-83
2024/05/06 11:38:10;;;;;;;5.20;4.80;;;27.90;58.10;;;;;;5346586;26;20080;-82
2024/05/06 11:40:38;;;;;;;;;;;28.30;57.60;;;;;;5319395;26;20016;-83
2024/05/06 11:43:05;;;;;;;3.22;2.67;;;28.80;57.20;;;;;;5346911;26;19932;-82
2024/05/06 11:45:33;;;;;;;3.97;3.67;;;28.80;57.20;;;;;;5318000;26;19993;-82
2024/05/06 11:48:00;;;;;;;3.58;3.13;;;28.50;57.10;;;;;;5318172;26;20466;-82
2024/05/06 11:50:28;;;;;;;3.35;3.13;;;28.60;57.10;;;;;;5346373;26;20460;-83
2024/05/06 11:53:01;;;;;;;3.60;3.30;;;28.70;56.70;;;;;;5292705;26;20000;-83
2024/05/06 11:55:28;;;;;;;2.67;2.47;;;28.80;56.30;;;;;;5321510;26;20008;-84
2024/05/06 11:57:55;;;;;;;2.78;2.58;;;29.00;55.90;;;;;;5351170;26;20025;-84
2024/05/06 12:00:22;;;;;;;2.55;2.42;;;29.30;55.60;;;;;;5367718;26;20036;-83
2024/05/06 12:02:56;;;;;;;3.38;3.08;;;29.30;54.60;;;;;;5410096;26;20000;-83
2024/05/06 12:05:27;;;;;;;5.75;3.50;;;29.30;54.80;;;;;;5298132;26;20009;-83
2024/05/06 12:07:54;;;;;;;4.38;3.13;;;29.20;55.40;;;;;;5410484;26;20015;-83
2024/05/06 12:10:21;;;;;;;2.90;2.70;;;29.00;55.80;;;;;;5351462;26;20011;-83
2024/05/06 12:12:51;;;;;;;3.10;2.30;;;28.80;55.40;;;;;;5381391;26;20463;-83
2024/05/06 12:15:18;;;;;;;3.15;2.75;;;28.90;55.80;;;;;;5351655;26;20001;-83
2024/05/06 12:17:45;;;;;;;3.70;2.75;;;29.00;55.60;;;;;;5382859;26;20329;-83
2024/05/06 12:20:12;;;;;;;3.78;2.58;;;28.90;56.10;;;;;;5323593;26;20009;-83
2024/05/06 12:22:44;;;;;;;3.55;3.25;;;28.90;55.40;;;;;;5325821;26;20506;-82
2024/05/06 12:25:11;;;;;;;3.58;3.28;;;28.80;55.60;;;;;;5323875;26;20005;-83
2024/05/06 12:27:38;;;;;;;5.00;3.45;;;28.60;56.10;;;;;;5323706;26;20337;-84
2024/05/06 12:30:09;;;;;;;3.80;3.50;;;28.40;56.30;;;;;;5352021;26;20325;-84
2024/05/06 12:32:42;;;;;;;3.40;2.97;;;28.30;56.50;;;;;;5382743;26;20377;-83
2024/05/06 12:35:10;;;;;;;3.33;3.13;;;28.20;56.80;;;;;;5352247;26;20007;-83
2024/05/06 12:37:38;;;;;;;3.53;3.22;;;28.10;56.70;;;;;;5352165;26;20376;-83
2024/05/06 12:40:07;;;;;;;4.18;3.78;;;27.80;56.70;;;;;;5380736;26;20077;-84
2024/05/06 12:42:39;;;;;;;2.35;2.17;;;27.60;56.70;;;;;;5352976;26;20403;-84
2024/05/06 12:45:07;;;;;;;4.15;3.75;;;27.40;57.00;;;;;;5351638;26;20000;-84
2024/05/06 12:47:34;;;;;;;4.13;3.60;;;27.30;57.40;;;;;;5351295;26;20000;-84
2024/05/06 12:50:01;;;;;;;3.90;3.50;;;27.30;57.50;;;;;;5323182;26;20015;-84
2024/05/06 12:52:31;;;;;;;5.57;3.30;;;27.40;57.60;;;;;;5296420;26;20000;-84
2024/05/06 12:54:59;;;;;;;5.13;4.03;;;27.30;57.90;;;;;;5323094;26;20047;-84